sensor_id;sensor_type;location;lat;lon;timestamp;P1;durP1;ratioP1;P2;durP2;ratioP2
22256;SDS011;11297;42.686;23.374;2022-12-18T00:01:12;8.80;;;7.90;;
22256;SDS011;11297;42.686;23.374;2022-12-18T00:03:40;8.33;;;7.20;;
22256;SDS011;11297;42.686;23.374;2022-12-18T00:06:05;8.47;;;7.37;;
22256;SDS011;11297;42.686;23.374;2022-12-18T00:08:31;7.73;;;6.90;;
22256;SDS011;11297;42.686;23.374;2022-12-18T00:11:02;8.77;;;6.80;;
22256;SDS011;11297;42.686;23.374;2022-12-18T00:13:29;7.10;;;6.40;;
22256;SDS011;11297;42.686;23.374;2022-12-18T00:15:54;7.90;;;7.10;;
22256;SDS011;11297;42.686;23.374;2022-12-18T00:18:19;8.53;;;7.13;;
22256;SDS011;11297;42.686;23.374;2022-12-18T00:20:45;8.70;;;7.83;;
22256;SDS011;11297;42.686;23.374;2022-12-18T00:23:10;8.77;;;7.10;;
22256;SDS011;11297;42.686;23.374;2022-12-18T00:25:35;9.20;;;7.87;;
22256;SDS011;11297;42.686;23.374;2022-12-18T00:28:01;9.87;;;7.47;;
22256;SDS011;11297;42.686;23.374;2022-12-18T00:30:28;8.27;;;7.33;;
22256;SDS011;11297;42.686;23.374;2022-12-18T00:32:53;9.73;;;7.63;;
22256;SDS011;11297;42.686;23.374;2022-12-18T00:35:18;8.87;;;7.97;;
22256;SDS011;11297;42.686;23.374;2022-12-18T00:37:44;10.87;;;9.03;;
22256;SDS011;11297;42.686;23.374;2022-12-18T00:40:09;10.17;;;8.07;;
22256;SDS011;11297;42.686;23.374;2022-12-18T00:42:35;13.83;;;9.20;;
22256;SDS011;11297;42.686;23.374;2022-12-18T00:45:19;10.20;;;7.67;;
22256;SDS011;11297;42.686;23.374;2022-12-18T00:47:45;6.60;;;5.90;;
22256;SDS011;11297;42.686;23.374;2022-12-18T00:50:10;8.90;;;7.70;;
22256;SDS011;11297;42.686;23.374;2022-12-18T00:52:35;8.83;;;7.87;;
22256;SDS011;11297;42.686;23.374;2022-12-18T00:55:01;8.50;;;7.70;;
22256;SDS011;11297;42.686;23.374;2022-12-18T00:57:26;8.07;;;7.30;;
22256;SDS011;11297;42.686;23.374;2022-12-18T00:59:52;8.87;;;7.83;;
22256;SDS011;11297;42.686;23.374;2022-12-18T01:02:17;9.87;;;7.53;;
22256;SDS011;11297;42.686;23.374;2022-12-18T01:04:42;9.33;;;8.00;;
22256;SDS011;11297;42.686;23.374;2022-12-18T01:07:08;8.37;;;7.00;;
22256;SDS011;11297;42.686;23.374;2022-12-18T01:09:33;9.37;;;7.63;;
22256;SDS011;11297;42.686;23.374;2022-12-18T01:11:59;9.53;;;7.87;;
22256;SDS011;11297;42.686;23.374;2022-12-18T01:14:24;8.40;;;7.30;;
22256;SDS011;11297;42.686;23.374;2022-12-18T01:16:50;9.77;;;8.73;;
22256;SDS011;11297;42.686;23.374;2022-12-18T01:19:15;9.87;;;8.23;;
22256;SDS011;11297;42.686;23.374;2022-12-18T01:21:41;9.83;;;8.03;;
22256;SDS011;11297;42.686;23.374;2022-12-18T01:24:06;9.40;;;7.97;;
22256;SDS011;11297;42.686;23.374;2022-12-18T01:26:32;10.27;;;8.53;;
22256;SDS011;11297;42.686;23.374;2022-12-18T01:28:57;9.33;;;7.93;;
22256;SDS011;11297;42.686;23.374;2022-12-18T01:31:24;9.03;;;8.10;;
22256;SDS011;11297;42.686;23.374;2022-12-18T01:33:51;10.00;;;8.70;;
22256;SDS011;11297;42.686;23.374;2022-12-18T01:36:21;12.03;;;9.13;;
22256;SDS011;11297;42.686;23.374;2022-12-18T01:38:47;9.33;;;8.40;;
22256;SDS011;11297;42.686;23.374;2022-12-18T01:41:13;10.67;;;8.40;;
22256;SDS011;11297;42.686;23.374;2022-12-18T01:46:17;12.73;;;10.10;;
22256;SDS011;11297;42.686;23.374;2022-12-18T01:48:44;11.33;;;8.53;;
22256;SDS011;11297;42.686;23.374;2022-12-18T01:51:12;11.80;;;9.20;;
22256;SDS011;11297;42.686;23.374;2022-12-18T01:53:39;8.97;;;8.03;;
22256;SDS011;11297;42.686;23.374;2022-12-18T01:56:06;10.30;;;8.83;;
22256;SDS011;11297;42.686;23.374;2022-12-18T01:58:41;11.27;;;9.73;;
22256;SDS011;11297;42.686;23.374;2022-12-18T02:01:14;10.03;;;8.63;;
22256;SDS011;11297;42.686;23.374;2022-12-18T02:03:41;11.60;;;9.37;;
22256;SDS011;11297;42.686;23.374;2022-12-18T02:06:15;9.57;;;8.40;;
22256;SDS011;11297;42.686;23.374;2022-12-18T02:08:49;9.53;;;8.07;;
22256;SDS011;11297;42.686;23.374;2022-12-18T02:11:25;12.23;;;8.43;;
22256;SDS011;11297;42.686;23.374;2022-12-18T02:19:32;10.40;;;9.10;;
22256;SDS011;11297;42.686;23.374;2022-12-18T02:28:04;8.67;;;7.60;;
22256;SDS011;11297;42.686;23.374;2022-12-18T02:30:35;8.97;;;7.63;;
22256;SDS011;11297;42.686;23.374;2022-12-18T02:33:04;10.37;;;7.97;;
22256;SDS011;11297;42.686;23.374;2022-12-18T02:35:31;11.33;;;8.23;;
22256;SDS011;11297;42.686;23.374;2022-12-18T02:37:58;11.37;;;8.10;;
22256;SDS011;11297;42.686;23.374;2022-12-18T02:40:25;9.00;;;7.07;;
22256;SDS011;11297;42.686;23.374;2022-12-18T02:42:53;9.47;;;8.47;;
22256;SDS011;11297;42.686;23.374;2022-12-18T02:45:18;9.40;;;7.20;;
22256;SDS011;11297;42.686;23.374;2022-12-18T02:47:45;9.40;;;8.07;;
22256;SDS011;11297;42.686;23.374;2022-12-18T03:01:31;10.27;;;8.67;;
22256;SDS011;11297;42.686;23.374;2022-12-18T03:04:04;10.20;;;7.67;;
22256;SDS011;11297;42.686;23.374;2022-12-18T03:06:55;9.97;;;7.70;;
22256;SDS011;11297;42.686;23.374;2022-12-18T03:09:34;10.40;;;7.57;;
22256;SDS011;11297;42.686;23.374;2022-12-18T03:12:47;8.97;;;8.07;;
22256;SDS011;11297;42.686;23.374;2022-12-18T03:15:14;11.00;;;8.63;;
22256;SDS011;11297;42.686;23.374;2022-12-18T03:17:46;8.10;;;7.30;;
22256;SDS011;11297;42.686;23.374;2022-12-18T03:20:19;11.17;;;8.83;;
22256;SDS011;11297;42.686;23.374;2022-12-18T03:22:48;8.57;;;7.57;;
22256;SDS011;11297;42.686;23.374;2022-12-18T03:25:18;9.93;;;8.17;;
22256;SDS011;11297;42.686;23.374;2022-12-18T03:27:46;9.07;;;8.07;;
22256;SDS011;11297;42.686;23.374;2022-12-18T03:30:14;8.93;;;7.63;;
22256;SDS011;11297;42.686;23.374;2022-12-18T03:35:27;8.73;;;7.50;;
22256;SDS011;11297;42.686;23.374;2022-12-18T03:37:55;8.43;;;7.13;;
22256;SDS011;11297;42.686;23.374;2022-12-18T03:40:21;8.27;;;7.43;;
22256;SDS011;11297;42.686;23.374;2022-12-18T03:42:59;9.13;;;7.93;;
22256;SDS011;11297;42.686;23.374;2022-12-18T03:45:32;9.33;;;7.33;;
22256;SDS011;11297;42.686;23.374;2022-12-18T03:48:06;9.93;;;7.50;;
22256;SDS011;11297;42.686;23.374;2022-12-18T03:50:44;8.90;;;7.13;;
22256;SDS011;11297;42.686;23.374;2022-12-18T03:53:25;8.37;;;7.53;;
22256;SDS011;11297;42.686;23.374;2022-12-18T03:55:59;10.53;;;7.93;;
22256;SDS011;11297;42.686;23.374;2022-12-18T03:58:27;8.93;;;8.03;;
22256;SDS011;11297;42.686;23.374;2022-12-18T04:00:55;11.00;;;8.50;;
22256;SDS011;11297;42.686;23.374;2022-12-18T04:03:23;9.93;;;7.93;;
22256;SDS011;11297;42.686;23.374;2022-12-18T04:05:52;9.60;;;7.80;;
22256;SDS011;11297;42.686;23.374;2022-12-18T04:08:20;10.30;;;8.57;;
22256;SDS011;11297;42.686;23.374;2022-12-18T04:10:47;9.70;;;7.80;;
22256;SDS011;11297;42.686;23.374;2022-12-18T04:13:13;11.70;;;8.87;;
22256;SDS011;11297;42.686;23.374;2022-12-18T04:15:47;11.50;;;7.93;;
22256;SDS011;11297;42.686;23.374;2022-12-18T04:18:12;11.00;;;8.70;;
22256;SDS011;11297;42.686;23.374;2022-12-18T04:20:38;14.37;;;9.47;;
22256;SDS011;11297;42.686;23.374;2022-12-18T04:23:03;12.07;;;9.83;;
22256;SDS011;11297;42.686;23.374;2022-12-18T04:25:28;13.20;;;9.33;;
22256;SDS011;11297;42.686;23.374;2022-12-18T04:27:54;11.73;;;9.47;;
22256;SDS011;11297;42.686;23.374;2022-12-18T04:30:19;13.73;;;10.37;;
22256;SDS011;11297;42.686;23.374;2022-12-18T04:32:44;11.17;;;9.27;;
22256;SDS011;11297;42.686;23.374;2022-12-18T04:35:10;10.43;;;9.30;;
22256;SDS011;11297;42.686;23.374;2022-12-18T04:37:36;14.20;;;9.77;;
22256;SDS011;11297;42.686;23.374;2022-12-18T04:40:02;11.87;;;8.50;;
22256;SDS011;11297;42.686;23.374;2022-12-18T04:42:27;14.13;;;9.43;;
22256;SDS011;11297;42.686;23.374;2022-12-18T04:44:53;12.83;;;10.53;;
22256;SDS011;11297;42.686;23.374;2022-12-18T04:47:18;14.03;;;10.10;;
22256;SDS011;11297;42.686;23.374;2022-12-18T04:49:43;13.67;;;9.80;;
22256;SDS011;11297;42.686;23.374;2022-12-18T04:52:09;13.87;;;10.00;;
22256;SDS011;11297;42.686;23.374;2022-12-18T04:54:34;14.63;;;10.53;;
22256;SDS011;11297;42.686;23.374;2022-12-18T04:57:00;13.13;;;10.20;;
22256;SDS011;11297;42.686;23.374;2022-12-18T04:59:25;14.30;;;10.73;;
22256;SDS011;11297;42.686;23.374;2022-12-18T05:01:50;14.00;;;11.00;;
22256;SDS011;11297;42.686;23.374;2022-12-18T05:04:16;13.13;;;10.47;;
22256;SDS011;11297;42.686;23.374;2022-12-18T05:06:41;13.57;;;10.47;;
22256;SDS011;11297;42.686;23.374;2022-12-18T05:09:07;14.90;;;10.70;;
22256;SDS011;11297;42.686;23.374;2022-12-18T05:11:32;14.00;;;10.93;;
22256;SDS011;11297;42.686;23.374;2022-12-18T05:13:57;14.37;;;10.40;;
22256;SDS011;11297;42.686;23.374;2022-12-18T05:16:23;15.00;;;11.37;;
22256;SDS011;11297;42.686;23.374;2022-12-18T05:18:48;15.17;;;11.50;;
22256;SDS011;11297;42.686;23.374;2022-12-18T05:21:13;15.53;;;12.20;;
22256;SDS011;11297;42.686;23.374;2022-12-18T05:23:39;15.93;;;12.33;;
22256;SDS011;11297;42.686;23.374;2022-12-18T05:26:05;14.50;;;10.90;;
22256;SDS011;11297;42.686;23.374;2022-12-18T05:28:33;15.83;;;11.80;;
22256;SDS011;11297;42.686;23.374;2022-12-18T05:31:00;18.70;;;12.40;;
22256;SDS011;11297;42.686;23.374;2022-12-18T05:33:28;16.13;;;12.23;;
22256;SDS011;11297;42.686;23.374;2022-12-18T05:35:57;14.67;;;11.73;;
22256;SDS011;11297;42.686;23.374;2022-12-18T05:38:24;16.40;;;11.50;;
22256;SDS011;11297;42.686;23.374;2022-12-18T05:40:50;17.70;;;10.83;;
22256;SDS011;11297;42.686;23.374;2022-12-18T05:43:17;17.23;;;12.30;;
22256;SDS011;11297;42.686;23.374;2022-12-18T05:45:44;15.90;;;11.47;;
22256;SDS011;11297;42.686;23.374;2022-12-18T05:48:09;13.37;;;11.23;;
22256;SDS011;11297;42.686;23.374;2022-12-18T05:50:35;15.70;;;11.17;;
22256;SDS011;11297;42.686;23.374;2022-12-18T05:53:01;18.10;;;12.67;;
22256;SDS011;11297;42.686;23.374;2022-12-18T05:55:27;17.77;;;12.73;;
22256;SDS011;11297;42.686;23.374;2022-12-18T05:57:53;14.83;;;11.60;;
22256;SDS011;11297;42.686;23.374;2022-12-18T06:00:18;16.47;;;12.00;;
22256;SDS011;11297;42.686;23.374;2022-12-18T06:02:47;17.90;;;12.83;;
22256;SDS011;11297;42.686;23.374;2022-12-18T06:05:12;17.63;;;13.13;;
22256;SDS011;11297;42.686;23.374;2022-12-18T06:07:38;16.33;;;12.37;;
22256;SDS011;11297;42.686;23.374;2022-12-18T06:10:03;17.07;;;12.47;;
22256;SDS011;11297;42.686;23.374;2022-12-18T06:12:29;19.27;;;13.20;;
22256;SDS011;11297;42.686;23.374;2022-12-18T06:14:54;18.17;;;13.07;;
22256;SDS011;11297;42.686;23.374;2022-12-18T06:17:20;14.43;;;10.57;;
22256;SDS011;11297;42.686;23.374;2022-12-18T06:19:45;15.60;;;12.33;;
22256;SDS011;11297;42.686;23.374;2022-12-18T06:22:10;17.00;;;12.33;;
22256;SDS011;11297;42.686;23.374;2022-12-18T06:24:36;18.30;;;12.27;;
22256;SDS011;11297;42.686;23.374;2022-12-18T06:27:01;17.93;;;12.97;;
22256;SDS011;11297;42.686;23.374;2022-12-18T06:29:27;18.57;;;13.40;;
22256;SDS011;11297;42.686;23.374;2022-12-18T06:31:53;18.23;;;12.37;;
22256;SDS011;11297;42.686;23.374;2022-12-18T06:34:19;17.50;;;13.20;;
22256;SDS011;11297;42.686;23.374;2022-12-18T06:36:44;19.17;;;13.23;;
22256;SDS011;11297;42.686;23.374;2022-12-18T06:39:10;17.67;;;12.40;;
22256;SDS011;11297;42.686;23.374;2022-12-18T06:41:35;17.40;;;12.60;;
22256;SDS011;11297;42.686;23.374;2022-12-18T06:44:00;18.40;;;14.00;;
22256;SDS011;11297;42.686;23.374;2022-12-18T06:46:26;15.43;;;12.20;;
22256;SDS011;11297;42.686;23.374;2022-12-18T06:48:51;16.93;;;13.23;;
22256;SDS011;11297;42.686;23.374;2022-12-18T06:51:23;16.97;;;11.97;;
22256;SDS011;11297;42.686;23.374;2022-12-18T06:53:49;17.47;;;12.33;;
22256;SDS011;11297;42.686;23.374;2022-12-18T06:56:14;19.20;;;12.40;;
22256;SDS011;11297;42.686;23.374;2022-12-18T06:58:40;15.83;;;12.30;;
22256;SDS011;11297;42.686;23.374;2022-12-18T07:01:07;15.83;;;12.13;;
22256;SDS011;11297;42.686;23.374;2022-12-18T07:03:34;17.80;;;12.67;;
22256;SDS011;11297;42.686;23.374;2022-12-18T07:05:59;17.07;;;12.87;;
22256;SDS011;11297;42.686;23.374;2022-12-18T07:08:25;16.23;;;12.03;;
22256;SDS011;11297;42.686;23.374;2022-12-18T07:10:50;15.13;;;11.00;;
22256;SDS011;11297;42.686;23.374;2022-12-18T07:13:16;19.27;;;12.73;;
22256;SDS011;11297;42.686;23.374;2022-12-18T07:15:42;14.97;;;11.30;;
22256;SDS011;11297;42.686;23.374;2022-12-18T07:18:08;16.50;;;12.63;;
22256;SDS011;11297;42.686;23.374;2022-12-18T07:20:33;16.60;;;12.70;;
22256;SDS011;11297;42.686;23.374;2022-12-18T07:23:01;17.13;;;12.07;;
22256;SDS011;11297;42.686;23.374;2022-12-18T07:25:27;18.17;;;13.60;;
22256;SDS011;11297;42.686;23.374;2022-12-18T07:27:53;18.80;;;13.90;;
22256;SDS011;11297;42.686;23.374;2022-12-18T07:30:19;18.87;;;13.57;;
22256;SDS011;11297;42.686;23.374;2022-12-18T07:32:44;19.20;;;13.23;;
22256;SDS011;11297;42.686;23.374;2022-12-18T07:35:10;18.30;;;13.50;;
22256;SDS011;11297;42.686;23.374;2022-12-18T07:37:35;20.23;;;14.20;;
22256;SDS011;11297;42.686;23.374;2022-12-18T07:40:00;21.23;;;14.27;;
22256;SDS011;11297;42.686;23.374;2022-12-18T07:42:26;19.90;;;14.10;;
22256;SDS011;11297;42.686;23.374;2022-12-18T07:45:00;20.30;;;13.97;;
22256;SDS011;11297;42.686;23.374;2022-12-18T07:47:26;18.77;;;14.50;;
22256;SDS011;11297;42.686;23.374;2022-12-18T07:49:52;19.33;;;13.67;;
22256;SDS011;11297;42.686;23.374;2022-12-18T07:52:18;20.37;;;14.30;;
22256;SDS011;11297;42.686;23.374;2022-12-18T07:54:43;20.40;;;15.07;;
22256;SDS011;11297;42.686;23.374;2022-12-18T07:57:10;20.63;;;15.83;;
22256;SDS011;11297;42.686;23.374;2022-12-18T07:59:36;18.77;;;14.43;;
22256;SDS011;11297;42.686;23.374;2022-12-18T08:02:02;23.10;;;15.07;;
22256;SDS011;11297;42.686;23.374;2022-12-18T08:04:28;22.43;;;14.07;;
22256;SDS011;11297;42.686;23.374;2022-12-18T08:06:53;19.47;;;15.13;;
22256;SDS011;11297;42.686;23.374;2022-12-18T08:09:19;23.50;;;16.73;;
22256;SDS011;11297;42.686;23.374;2022-12-18T08:11:44;22.43;;;15.30;;
22256;SDS011;11297;42.686;23.374;2022-12-18T08:14:10;21.60;;;15.80;;
22256;SDS011;11297;42.686;23.374;2022-12-18T08:16:35;21.27;;;14.43;;
22256;SDS011;11297;42.686;23.374;2022-12-18T08:19:00;20.67;;;15.00;;
22256;SDS011;11297;42.686;23.374;2022-12-18T08:21:27;23.60;;;15.77;;
22256;SDS011;11297;42.686;23.374;2022-12-18T08:23:55;22.33;;;16.87;;
22256;SDS011;11297;42.686;23.374;2022-12-18T08:26:22;22.63;;;15.07;;
22256;SDS011;11297;42.686;23.374;2022-12-18T08:28:49;23.33;;;15.93;;
22256;SDS011;11297;42.686;23.374;2022-12-18T08:31:15;24.80;;;15.83;;
22256;SDS011;11297;42.686;23.374;2022-12-18T08:33:41;23.03;;;16.40;;
22256;SDS011;11297;42.686;23.374;2022-12-18T08:36:07;20.07;;;15.03;;
22256;SDS011;11297;42.686;23.374;2022-12-18T08:38:33;22.17;;;15.40;;
22256;SDS011;11297;42.686;23.374;2022-12-18T08:41:00;24.87;;;16.13;;
22256;SDS011;11297;42.686;23.374;2022-12-18T08:43:25;23.73;;;15.70;;
22256;SDS011;11297;42.686;23.374;2022-12-18T08:46:09;19.73;;;14.50;;
22256;SDS011;11297;42.686;23.374;2022-12-18T08:48:35;21.27;;;15.40;;
22256;SDS011;11297;42.686;23.374;2022-12-18T08:51:00;20.90;;;15.30;;
22256;SDS011;11297;42.686;23.374;2022-12-18T08:53:26;20.13;;;14.80;;
22256;SDS011;11297;42.686;23.374;2022-12-18T08:55:52;20.70;;;14.87;;
22256;SDS011;11297;42.686;23.374;2022-12-18T08:58:18;22.30;;;15.90;;
22256;SDS011;11297;42.686;23.374;2022-12-18T09:00:44;17.70;;;11.43;;
22256;SDS011;11297;42.686;23.374;2022-12-18T09:03:12;27.10;;;15.70;;
22256;SDS011;11297;42.686;23.374;2022-12-18T09:05:38;20.20;;;14.77;;
22256;SDS011;11297;42.686;23.374;2022-12-18T09:08:04;22.10;;;15.13;;
22256;SDS011;11297;42.686;23.374;2022-12-18T09:10:29;18.80;;;13.10;;
22256;SDS011;11297;42.686;23.374;2022-12-18T09:12:55;18.70;;;14.23;;
22256;SDS011;11297;42.686;23.374;2022-12-18T09:15:21;20.80;;;15.50;;
22256;SDS011;11297;42.686;23.374;2022-12-18T09:17:47;15.57;;;11.50;;
22256;SDS011;11297;42.686;23.374;2022-12-18T09:20:13;19.23;;;13.30;;
22256;SDS011;11297;42.686;23.374;2022-12-18T09:22:38;23.07;;;14.73;;
22256;SDS011;11297;42.686;23.374;2022-12-18T09:25:04;19.83;;;14.27;;
22256;SDS011;11297;42.686;23.374;2022-12-18T09:27:32;18.93;;;13.07;;
22256;SDS011;11297;42.686;23.374;2022-12-18T09:29:58;21.43;;;13.63;;
22256;SDS011;11297;42.686;23.374;2022-12-18T09:32:23;22.17;;;13.20;;
22256;SDS011;11297;42.686;23.374;2022-12-18T09:34:49;21.07;;;14.70;;
22256;SDS011;11297;42.686;23.374;2022-12-18T09:37:14;19.70;;;13.70;;
22256;SDS011;11297;42.686;23.374;2022-12-18T09:39:40;18.97;;;12.77;;
22256;SDS011;11297;42.686;23.374;2022-12-18T09:42:05;21.53;;;14.20;;
22256;SDS011;11297;42.686;23.374;2022-12-18T09:44:41;19.33;;;13.23;;
22256;SDS011;11297;42.686;23.374;2022-12-18T09:49:43;18.50;;;13.27;;
22256;SDS011;11297;42.686;23.374;2022-12-18T09:54:55;18.17;;;12.77;;
22256;SDS011;11297;42.686;23.374;2022-12-18T09:57:25;17.43;;;13.93;;
22256;SDS011;11297;42.686;23.374;2022-12-18T09:59:55;17.93;;;12.67;;
22256;SDS011;11297;42.686;23.374;2022-12-18T10:02:24;16.43;;;11.77;;
22256;SDS011;11297;42.686;23.374;2022-12-18T10:05:41;17.60;;;12.33;;
22256;SDS011;11297;42.686;23.374;2022-12-18T10:08:15;16.63;;;12.83;;
22256;SDS011;11297;42.686;23.374;2022-12-18T10:10:49;19.00;;;12.80;;
22256;SDS011;11297;42.686;23.374;2022-12-18T10:21:38;19.40;;;13.37;;
22256;SDS011;11297;42.686;23.374;2022-12-18T10:26:51;17.67;;;13.17;;
22256;SDS011;11297;42.686;23.374;2022-12-18T10:29:18;17.77;;;12.53;;
22256;SDS011;11297;42.686;23.374;2022-12-18T10:31:44;21.40;;;14.67;;
22256;SDS011;11297;42.686;23.374;2022-12-18T10:34:10;18.03;;;12.97;;
22256;SDS011;11297;42.686;23.374;2022-12-18T10:36:39;19.27;;;13.53;;
22256;SDS011;11297;42.686;23.374;2022-12-18T10:39:18;18.83;;;13.03;;
22256;SDS011;11297;42.686;23.374;2022-12-18T10:41:50;18.23;;;12.00;;
22256;SDS011;11297;42.686;23.374;2022-12-18T10:44:21;15.50;;;11.73;;
22256;SDS011;11297;42.686;23.374;2022-12-18T10:46:48;17.93;;;12.60;;
22256;SDS011;11297;42.686;23.374;2022-12-18T10:49:18;19.90;;;13.73;;
22256;SDS011;11297;42.686;23.374;2022-12-18T10:51:48;16.03;;;12.57;;
22256;SDS011;11297;42.686;23.374;2022-12-18T10:56:42;22.33;;;15.00;;
22256;SDS011;11297;42.686;23.374;2022-12-18T10:59:15;18.90;;;13.73;;
22256;SDS011;11297;42.686;23.374;2022-12-18T11:01:54;20.83;;;14.60;;
22256;SDS011;11297;42.686;23.374;2022-12-18T11:04:24;20.00;;;14.20;;
22256;SDS011;11297;42.686;23.374;2022-12-18T11:09:23;21.17;;;14.37;;
22256;SDS011;11297;42.686;23.374;2022-12-18T11:11:55;21.00;;;14.67;;
22256;SDS011;11297;42.686;23.374;2022-12-18T11:14:34;20.17;;;13.57;;
22256;SDS011;11297;42.686;23.374;2022-12-18T11:17:18;21.93;;;14.60;;
22256;SDS011;11297;42.686;23.374;2022-12-18T11:19:45;19.60;;;14.23;;
22256;SDS011;11297;42.686;23.374;2022-12-18T11:22:30;15.97;;;12.97;;
22256;SDS011;11297;42.686;23.374;2022-12-18T11:25:31;20.23;;;13.83;;
22256;SDS011;11297;42.686;23.374;2022-12-18T11:27:54;16.23;;;12.83;;
22256;SDS011;11297;42.686;23.374;2022-12-18T11:30:34;20.17;;;12.77;;
22256;SDS011;11297;42.686;23.374;2022-12-18T11:33:15;21.63;;;14.40;;
22256;SDS011;11297;42.686;23.374;2022-12-18T11:35:47;18.27;;;13.30;;
22256;SDS011;11297;42.686;23.374;2022-12-18T11:38:21;19.33;;;13.63;;
22256;SDS011;11297;42.686;23.374;2022-12-18T11:40:59;19.40;;;14.07;;
22256;SDS011;11297;42.686;23.374;2022-12-18T11:43:34;19.80;;;14.17;;
22256;SDS011;11297;42.686;23.374;2022-12-18T11:46:13;19.47;;;13.57;;
22256;SDS011;11297;42.686;23.374;2022-12-18T11:51:33;18.23;;;13.10;;
22256;SDS011;11297;42.686;23.374;2022-12-18T11:54:08;17.93;;;13.10;;
22256;SDS011;11297;42.686;23.374;2022-12-18T11:56:51;17.53;;;12.87;;
22256;SDS011;11297;42.686;23.374;2022-12-18T12:09:58;17.53;;;12.53;;
22256;SDS011;11297;42.686;23.374;2022-12-18T12:15:12;18.40;;;12.83;;
22256;SDS011;11297;42.686;23.374;2022-12-18T12:20:20;20.10;;;14.13;;
22256;SDS011;11297;42.686;23.374;2022-12-18T12:22:56;21.27;;;14.60;;
22256;SDS011;11297;42.686;23.374;2022-12-18T12:25:40;21.97;;;15.27;;
22256;SDS011;11297;42.686;23.374;2022-12-18T12:28:33;18.70;;;12.50;;
22256;SDS011;11297;42.686;23.374;2022-12-18T12:39:18;19.23;;;13.17;;
22256;SDS011;11297;42.686;23.374;2022-12-18T12:41:48;18.43;;;13.37;;
22256;SDS011;11297;42.686;23.374;2022-12-18T12:44:34;21.60;;;13.93;;
22256;SDS011;11297;42.686;23.374;2022-12-18T12:47:11;19.00;;;14.03;;
22256;SDS011;11297;42.686;23.374;2022-12-18T12:49:44;19.30;;;13.07;;
22256;SDS011;11297;42.686;23.374;2022-12-18T12:52:15;20.70;;;14.40;;
22256;SDS011;11297;42.686;23.374;2022-12-18T12:54:48;18.57;;;13.40;;
22256;SDS011;11297;42.686;23.374;2022-12-18T12:57:30;19.67;;;13.67;;
22256;SDS011;11297;42.686;23.374;2022-12-18T13:00:11;19.07;;;13.43;;
22256;SDS011;11297;42.686;23.374;2022-12-18T13:05:22;20.93;;;14.43;;
22256;SDS011;11297;42.686;23.374;2022-12-18T13:08:11;20.20;;;14.77;;
22256;SDS011;11297;42.686;23.374;2022-12-18T13:10:46;20.50;;;14.90;;
22256;SDS011;11297;42.686;23.374;2022-12-18T13:13:15;22.80;;;14.33;;
22256;SDS011;11297;42.686;23.374;2022-12-18T13:15:48;24.40;;;14.90;;
22256;SDS011;11297;42.686;23.374;2022-12-18T13:18:28;23.10;;;14.20;;
22256;SDS011;11297;42.686;23.374;2022-12-18T13:25:44;20.93;;;15.23;;
22256;SDS011;11297;42.686;23.374;2022-12-18T13:28:14;22.40;;;14.80;;
22256;SDS011;11297;42.686;23.374;2022-12-18T13:30:55;17.90;;;13.30;;
22256;SDS011;11297;42.686;23.374;2022-12-18T13:40:56;22.37;;;14.30;;
22256;SDS011;11297;42.686;23.374;2022-12-18T13:43:23;20.03;;;13.97;;
22256;SDS011;11297;42.686;23.374;2022-12-18T13:46:03;21.00;;;14.27;;
22256;SDS011;11297;42.686;23.374;2022-12-18T13:51:54;19.87;;;14.33;;
22256;SDS011;11297;42.686;23.374;2022-12-18T13:56:47;21.07;;;13.87;;
22256;SDS011;11297;42.686;23.374;2022-12-18T14:07:16;20.23;;;14.90;;
22256;SDS011;11297;42.686;23.374;2022-12-18T14:09:51;17.53;;;13.33;;
22256;SDS011;11297;42.686;23.374;2022-12-18T14:12:19;17.83;;;12.53;;
22256;SDS011;11297;42.686;23.374;2022-12-18T14:15:09;16.63;;;12.80;;
22256;SDS011;11297;42.686;23.374;2022-12-18T14:17:50;19.67;;;13.53;;
22256;SDS011;11297;42.686;23.374;2022-12-18T14:20:16;18.67;;;13.10;;
22256;SDS011;11297;42.686;23.374;2022-12-18T14:22:45;18.47;;;12.90;;
22256;SDS011;11297;42.686;23.374;2022-12-18T14:27:46;19.53;;;13.10;;
22256;SDS011;11297;42.686;23.374;2022-12-18T14:30:36;19.83;;;14.20;;
22256;SDS011;11297;42.686;23.374;2022-12-18T14:33:13;17.27;;;13.10;;
22256;SDS011;11297;42.686;23.374;2022-12-18T14:35:58;19.43;;;12.70;;
22256;SDS011;11297;42.686;23.374;2022-12-18T14:38:37;20.17;;;13.43;;
22256;SDS011;11297;42.686;23.374;2022-12-18T14:41:10;18.37;;;13.53;;
22256;SDS011;11297;42.686;23.374;2022-12-18T14:43:38;20.67;;;13.10;;
22256;SDS011;11297;42.686;23.374;2022-12-18T14:46:05;18.80;;;12.93;;
22256;SDS011;11297;42.686;23.374;2022-12-18T14:48:51;19.50;;;12.97;;
22256;SDS011;11297;42.686;23.374;2022-12-18T14:51:18;18.97;;;13.70;;
22256;SDS011;11297;42.686;23.374;2022-12-18T14:53:58;17.13;;;12.43;;
22256;SDS011;11297;42.686;23.374;2022-12-18T14:56:35;18.97;;;13.63;;
22256;SDS011;11297;42.686;23.374;2022-12-18T14:59:06;16.13;;;11.83;;
22256;SDS011;11297;42.686;23.374;2022-12-18T15:01:51;18.50;;;12.23;;
22256;SDS011;11297;42.686;23.374;2022-12-18T15:04:42;30.60;;;19.73;;
22256;SDS011;11297;42.686;23.374;2022-12-18T15:10:00;19.47;;;12.13;;
22256;SDS011;11297;42.686;23.374;2022-12-18T15:12:50;18.53;;;12.90;;
22256;SDS011;11297;42.686;23.374;2022-12-18T15:17:58;17.57;;;12.57;;
22256;SDS011;11297;42.686;23.374;2022-12-18T15:20:57;18.17;;;12.87;;
22256;SDS011;11297;42.686;23.374;2022-12-18T15:23:35;17.93;;;12.83;;
22256;SDS011;11297;42.686;23.374;2022-12-18T15:26:06;18.17;;;12.40;;
22256;SDS011;11297;42.686;23.374;2022-12-18T15:28:37;17.17;;;12.03;;
22256;SDS011;11297;42.686;23.374;2022-12-18T15:31:17;18.93;;;12.10;;
22256;SDS011;11297;42.686;23.374;2022-12-18T15:36:23;17.90;;;12.27;;
22256;SDS011;11297;42.686;23.374;2022-12-18T15:38:50;16.60;;;11.90;;
22256;SDS011;11297;42.686;23.374;2022-12-18T15:41:17;16.90;;;12.50;;
22256;SDS011;11297;42.686;23.374;2022-12-18T15:43:44;19.20;;;12.40;;
22256;SDS011;11297;42.686;23.374;2022-12-18T15:46:12;19.17;;;12.30;;
22256;SDS011;11297;42.686;23.374;2022-12-18T15:48:40;19.77;;;14.57;;
22256;SDS011;11297;42.686;23.374;2022-12-18T15:51:20;18.37;;;12.73;;
22256;SDS011;11297;42.686;23.374;2022-12-18T15:53:54;18.50;;;12.77;;
22256;SDS011;11297;42.686;23.374;2022-12-18T15:56:23;21.43;;;14.13;;
22256;SDS011;11297;42.686;23.374;2022-12-18T15:59:08;22.30;;;15.47;;
22256;SDS011;11297;42.686;23.374;2022-12-18T16:01:37;21.23;;;13.20;;
22256;SDS011;11297;42.686;23.374;2022-12-18T16:04:02;20.40;;;14.23;;
22256;SDS011;11297;42.686;23.374;2022-12-18T16:06:28;18.20;;;12.70;;
22256;SDS011;11297;42.686;23.374;2022-12-18T16:08:53;20.17;;;14.57;;
22256;SDS011;11297;42.686;23.374;2022-12-18T16:11:23;22.77;;;15.07;;
22256;SDS011;11297;42.686;23.374;2022-12-18T16:16:46;22.13;;;14.40;;
22256;SDS011;11297;42.686;23.374;2022-12-18T16:19:13;19.10;;;13.40;;
22256;SDS011;11297;42.686;23.374;2022-12-18T16:21:39;21.03;;;14.13;;
22256;SDS011;11297;42.686;23.374;2022-12-18T16:24:04;22.00;;;14.40;;
22256;SDS011;11297;42.686;23.374;2022-12-18T16:26:30;22.27;;;14.87;;
22256;SDS011;11297;42.686;23.374;2022-12-18T16:28:55;19.30;;;12.93;;